Terminal Aerodrome Forecast
Issued by NWS El Paso, TX

Home | Current Version | Previous Version | Text Only | Print | Product List | Glossary On
Versions: 1 2 3 4 5 6 7 8 9 10 11 12
890
FTUS44 KEPZ 130520
TAFELP
TAF
KELP 130520Z 1306/1406 06006KT P6SM FEW250
     FM132300 24006KT P6SM FEW250
     FM140500 02005KT P6SM FEW250=

USA.gov is the U.S. government's official web portal to all federal, state and local government web resources and services.